createdAt,value
2022-10-07T00:01:07.216Z,95547.38
2022-10-07T00:03:36.534Z,95540.84
2022-10-07T00:06:08.099Z,95536.97
2022-10-07T00:08:37.308Z,95540.03
2022-10-07T00:11:07.999Z,95532.25
2022-10-07T00:13:38.844Z,95535.97
2022-10-07T00:16:08.488Z,95530.75
2022-10-07T00:18:37.489Z,95532.84
2022-10-07T00:21:08.754Z,95529.28
2022-10-07T00:23:37.439Z,95531.66
2022-10-07T00:26:06.575Z,95526.31
2022-10-07T00:28:35.645Z,95527.09
2022-10-07T00:31:07.452Z,95527.13
2022-10-07T00:33:39.230Z,95525.22
2022-10-07T00:36:16.195Z,95519.06
2022-10-07T00:38:44.411Z,95526.84
2022-10-07T00:41:18.516Z,95526.44
2022-10-07T00:43:46.562Z,95519.28
2022-10-07T00:46:22.385Z,95514.53
2022-10-07T00:48:51.426Z,95524.47
2022-10-07T00:51:20.878Z,95515.72
2022-10-07T00:53:52.670Z,95512.44
2022-10-07T00:56:20.844Z,95520.94
2022-10-07T00:58:50.451Z,95506.13
2022-10-07T01:01:20.106Z,95511.84
2022-10-07T01:03:49.264Z,95512.16
2022-10-07T01:06:17.819Z,95515.41
2022-10-07T01:08:48.889Z,95510.69
2022-10-07T01:11:29.544Z,95506.22
2022-10-07T01:14:08.202Z,95512.38
2022-10-07T01:16:44.455Z,95511.44
2022-10-07T01:19:31.981Z,95512.47
2022-10-07T01:22:12.674Z,95501.88
2022-10-07T01:24:48.080Z,95504.78
2022-10-07T01:27:19.944Z,95507.28
2022-10-07T01:29:56.226Z,95504.63
2022-10-07T01:32:32.120Z,95499.06
2022-10-07T01:35:02.824Z,95493.75
2022-10-07T01:37:36.582Z,95500.44
2022-10-07T01:40:11.404Z,95497.19
2022-10-07T01:42:41.470Z,95491.84
2022-10-07T01:45:13.121Z,95491.47
2022-10-07T01:47:42.387Z,95498.91
2022-10-07T01:50:13.702Z,95494.44
2022-10-07T01:53:03.093Z,95487.00
2022-10-07T01:55:46.659Z,95481.84
2022-10-07T01:58:30.110Z,95487.63
2022-10-07T02:01:07.430Z,95480.00
2022-10-07T02:03:47.865Z,95476.78
2022-10-07T02:06:27.277Z,95468.75
2022-10-07T02:08:57.661Z,95472.69
2022-10-07T02:11:28.457Z,95468.38
2022-10-07T02:14:02.698Z,95459.13
2022-10-07T02:16:35.808Z,95468.16
2022-10-07T02:19:08.860Z,95469.25
2022-10-07T02:21:37.805Z,95475.28
2022-10-07T02:24:06.962Z,95479.38
2022-10-07T02:26:36.693Z,95481.28
2022-10-07T02:29:10.025Z,95475.28
2022-10-07T02:31:40.254Z,95484.84
2022-10-07T02:34:12.560Z,95478.56
2022-10-07T02:36:52.650Z,95484.03
2022-10-07T02:39:21.559Z,95479.09
2022-10-07T02:41:55.849Z,95476.38
2022-10-07T02:44:31.839Z,95476.09
2022-10-07T02:47:05.178Z,95469.41
2022-10-07T02:49:38.495Z,95471.19
2022-10-07T02:52:10.476Z,95465.88
2022-10-07T02:54:42.773Z,95464.94
2022-10-07T02:57:13.775Z,95462.84
2022-10-07T02:59:45.334Z,95471.47
2022-10-07T03:02:18.721Z,95466.25
2022-10-07T03:04:46.717Z,95473.34
2022-10-07T03:07:14.838Z,95472.25
2022-10-07T03:09:43.693Z,95467.91
2022-10-07T03:12:11.773Z,95477.16
2022-10-07T03:14:39.611Z,95468.16
2022-10-07T03:17:08.892Z,95473.88
2022-10-07T03:19:37.100Z,95469.50
2022-10-07T03:22:05.019Z,95475.53
2022-10-07T03:24:32.899Z,95465.41
2022-10-07T03:27:00.844Z,95449.59
2022-10-07T03:29:32.745Z,95459.31
2022-10-07T03:32:01.272Z,95461.78
2022-10-07T03:34:31.819Z,95459.25
2022-10-07T03:36:59.967Z,95453.38
2022-10-07T03:39:28.235Z,95455.59
2022-10-07T03:41:58.798Z,95447.97
2022-10-07T03:44:26.895Z,95436.28
2022-10-07T03:46:54.847Z,95449.78
2022-10-07T03:49:23.549Z,95450.47
2022-10-07T03:51:52.822Z,95455.22
2022-10-07T03:54:21.224Z,95453.47
2022-10-07T03:56:49.321Z,95456.31
2022-10-07T03:59:17.276Z,95456.88
2022-10-07T04:02:06.717Z,95460.16
2022-10-07T04:04:34.648Z,95452.50
2022-10-07T04:07:05.304Z,95459.59
2022-10-07T04:09:33.235Z,95454.28
2022-10-07T04:12:01.817Z,95465.06
2022-10-07T04:14:29.714Z,95457.53
2022-10-07T04:16:57.637Z,95460.53
2022-10-07T04:19:25.546Z,95451.69
2022-10-07T04:21:53.444Z,95461.22
2022-10-07T04:24:22.744Z,95462.59
2022-10-07T04:26:51.338Z,95458.25
2022-10-07T04:29:19.390Z,95455.50
2022-10-07T04:31:47.325Z,95449.22
2022-10-07T04:34:15.302Z,95464.22
2022-10-07T04:36:43.249Z,95466.81
2022-10-07T04:39:11.189Z,95460.84
2022-10-07T04:41:40.468Z,95462.44
2022-10-07T04:44:08.327Z,95461.34
2022-10-07T04:46:36.537Z,95468.72
2022-10-07T04:49:05.131Z,95460.44
2022-10-07T04:51:33.069Z,95464.78
2022-10-07T04:54:00.960Z,95460.81
2022-10-07T04:56:31.409Z,95456.19
2022-10-07T04:59:00.854Z,95469.69
2022-10-07T05:01:28.800Z,95469.56
2022-10-07T05:03:58.120Z,95473.50
2022-10-07T05:06:26.217Z,95472.16
2022-10-07T05:08:54.376Z,95473.09
2022-10-07T05:11:22.269Z,95474.03
2022-10-07T05:13:50.391Z,95486.88
2022-10-07T05:16:19.675Z,95488.94
2022-10-07T05:18:47.603Z,95493.00
2022-10-07T05:21:15.529Z,95485.34
2022-10-07T05:23:43.404Z,95491.88
2022-10-07T05:26:13.859Z,95499.50
2022-10-07T05:28:44.173Z,95507.69
2022-10-07T05:31:14.704Z,95493.94
2022-10-07T05:33:44.249Z,95501.81
2022-10-07T05:36:12.576Z,95509.88
2022-10-07T05:38:40.662Z,95498.16
2022-10-07T05:41:11.362Z,95512.06
2022-10-07T05:43:42.341Z,95512.03
2022-10-07T05:46:13.429Z,95500.84
2022-10-07T05:48:46.390Z,95506.81
2022-10-07T05:51:15.149Z,95513.63
2022-10-07T05:53:43.259Z,95513.47
2022-10-07T05:56:12.686Z,95509.53
2022-10-07T05:58:40.980Z,95515.97
2022-10-07T06:01:14.722Z,95525.22
2022-10-07T06:03:44.749Z,95525.00
2022-10-07T06:06:12.651Z,95521.53
2022-10-07T06:08:40.648Z,95526.88
2022-10-07T06:11:29.039Z,95536.16
2022-10-07T06:13:57.139Z,95526.84
2022-10-07T06:16:25.769Z,95525.56
2022-10-07T06:18:55.997Z,95533.22
2022-10-07T06:21:27.798Z,95538.38
2022-10-07T06:23:58.047Z,95533.84
2022-10-07T06:26:26.211Z,95542.63
2022-10-07T06:28:54.165Z,95542.16
2022-10-07T06:31:25.358Z,95543.47
2022-10-07T06:33:55.192Z,95551.22
2022-10-07T06:36:23.488Z,95544.47
2022-10-07T06:38:52.912Z,95540.16
2022-10-07T06:41:21.660Z,95543.94
2022-10-07T06:43:50.070Z,95544.38
2022-10-07T06:46:19.817Z,95546.22
2022-10-07T06:48:48.089Z,95553.78
2022-10-07T06:51:19.723Z,95562.75
2022-10-07T06:53:51.565Z,95563.16
2022-10-07T06:56:19.598Z,95571.47
2022-10-07T06:58:48.739Z,95579.19
2022-10-07T07:01:17.062Z,95566.34
2022-10-07T07:03:45.076Z,95581.88
2022-10-07T07:06:13.809Z,95574.59
2022-10-07T07:08:44.797Z,95582.50
2022-10-07T07:11:32.206Z,95582.72
2022-10-07T07:14:00.671Z,95587.59
2022-10-07T07:16:29.033Z,95581.38
2022-10-07T07:18:59.094Z,95586.56
2022-10-07T07:21:28.963Z,95591.31
2022-10-07T07:23:58.991Z,95582.22
2022-10-07T07:26:28.251Z,95588.41
2022-10-07T07:28:58.803Z,95583.25
2022-10-07T07:31:28.869Z,95588.78
2022-10-07T07:33:57.173Z,95591.25
2022-10-07T07:36:26.492Z,95591.78
2022-10-07T07:38:55.578Z,95586.22
2022-10-07T07:41:27.330Z,95577.41
2022-10-07T07:43:57.449Z,95589.97
2022-10-07T07:46:29.921Z,95589.66
2022-10-07T07:48:58.520Z,95585.88
2022-10-07T07:51:26.432Z,95595.34
2022-10-07T07:53:54.397Z,95591.41
2022-10-07T07:56:22.441Z,95584.38
2022-10-07T07:58:51.745Z,95584.34
2022-10-07T08:01:20.082Z,95594.09
2022-10-07T08:03:49.929Z,95597.97
2022-10-07T08:06:22.174Z,95592.06
2022-10-07T08:08:51.998Z,95585.47
2022-10-07T08:11:21.796Z,95582.66
2022-10-07T08:13:51.637Z,95582.78
2022-10-07T08:16:21.454Z,95586.59
2022-10-07T08:18:51.097Z,95585.00
2022-10-07T08:21:20.910Z,95590.28
2022-10-07T08:23:49.596Z,95598.38
2022-10-07T08:26:17.494Z,95598.84
2022-10-07T08:28:46.496Z,95602.31
2022-10-07T08:31:18.726Z,95607.91
2022-10-07T08:33:49.392Z,95604.69
2022-10-07T08:36:19.478Z,95600.66
2022-10-07T08:38:47.854Z,95600.50
2022-10-07T08:41:25.934Z,95599.06
2022-10-07T08:43:53.890Z,95599.53
2022-10-07T08:46:30.190Z,95593.38
2022-10-07T08:49:01.043Z,95581.69
2022-10-07T08:51:35.715Z,95594.22
2022-10-07T08:54:04.108Z,95595.66
2022-10-07T08:56:33.954Z,95592.44
2022-10-07T08:59:21.749Z,95585.19
2022-10-07T09:02:00.540Z,95576.31
2022-10-07T09:04:43.843Z,95581.72
2022-10-07T09:07:15.803Z,95585.38
2022-10-07T09:09:47.676Z,95580.97
2022-10-07T09:12:22.928Z,95572.94
2022-10-07T09:14:55.022Z,95561.16
2022-10-07T09:17:34.867Z,95557.25
2022-10-07T09:20:07.964Z,95558.22
2022-10-07T09:22:39.630Z,95555.00
2022-10-07T09:25:20.806Z,95552.28
2022-10-07T09:27:51.383Z,95549.34
2022-10-07T09:30:20.300Z,95540.53
2022-10-07T09:32:51.562Z,95544.66
2022-10-07T09:35:22.047Z,95549.44
2022-10-07T09:38:01.735Z,95544.22
2022-10-07T09:40:35.915Z,95541.59
2022-10-07T09:43:14.117Z,95538.47
2022-10-07T09:45:48.004Z,95541.22
2022-10-07T09:48:24.611Z,95541.09
2022-10-07T09:50:52.682Z,95541.88
2022-10-07T09:53:23.106Z,95534.47
2022-10-07T09:55:53.245Z,95530.53
2022-10-07T09:58:26.012Z,95527.50
2022-10-07T10:00:55.934Z,95525.97
2022-10-07T10:03:30.448Z,95524.41
2022-10-07T10:06:00.738Z,95513.25
2022-10-07T10:08:31.222Z,95503.75
2022-10-07T10:11:01.478Z,95509.53
2022-10-07T10:13:32.907Z,95501.78
2022-10-07T10:16:02.180Z,95495.38
2022-10-07T10:18:40.529Z,95499.88
2022-10-07T10:21:22.174Z,95494.88
2022-10-07T10:23:52.623Z,95492.28
2022-10-07T10:26:48.473Z,95492.66
2022-10-07T10:29:35.466Z,95483.81
2022-10-07T10:32:28.657Z,95494.03
2022-10-07T10:35:04.043Z,95483.38
2022-10-07T10:37:47.256Z,95479.19
2022-10-07T10:40:27.073Z,95467.31
2022-10-07T10:43:08.133Z,95465.19
2022-10-07T10:45:44.360Z,95465.88
2022-10-07T10:48:29.171Z,95463.50
2022-10-07T10:51:05.930Z,95464.59
2022-10-07T10:53:48.932Z,95454.41
2022-10-07T10:56:33.505Z,95446.81
2022-10-07T10:59:19.156Z,95441.75
2022-10-07T11:01:56.526Z,95446.06
2022-10-07T11:04:46.703Z,95437.03
2022-10-07T11:07:21.420Z,95432.09
2022-10-07T11:09:53.303Z,95432.53
2022-10-07T11:12:26.708Z,95428.34
2022-10-07T11:15:02.239Z,95424.16
2022-10-07T11:17:33.065Z,95423.63
2022-10-07T11:20:08.456Z,95413.19
2022-10-07T11:22:44.460Z,95419.28
2022-10-07T11:25:25.370Z,95419.53
2022-10-07T11:27:57.063Z,95417.03
2022-10-07T11:30:32.101Z,95417.34
2022-10-07T11:33:04.917Z,95406.94
2022-10-07T11:35:35.370Z,95416.72
2022-10-07T11:38:15.563Z,95394.63
2022-10-07T11:40:46.787Z,95401.06
2022-10-07T11:43:20.339Z,95395.88
2022-10-07T11:45:54.120Z,95395.41
2022-10-07T11:48:28.581Z,95391.59
2022-10-07T11:51:00.876Z,95398.72
2022-10-07T11:53:35.744Z,95390.97
2022-10-07T11:56:07.251Z,95386.97
2022-10-07T11:58:38.399Z,95390.88
2022-10-07T12:01:45.846Z,95390.06
2022-10-07T12:04:37.033Z,95384.03
2022-10-07T12:07:36.998Z,95382.94
2022-10-07T12:10:28.248Z,95375.97
2022-10-07T12:13:02.499Z,95373.09
2022-10-07T12:15:35.983Z,95374.53
2022-10-07T12:18:33.253Z,95382.19
2022-10-07T12:21:07.848Z,95368.38
2022-10-07T12:23:41.470Z,95377.56
2022-10-07T12:26:48.771Z,95374.34
2022-10-07T12:29:49.463Z,95366.94
2022-10-07T12:32:56.854Z,95366.16
2022-10-07T12:35:54.202Z,95370.22
2022-10-07T12:38:28.347Z,95366.59
2022-10-07T12:41:19.225Z,95371.13
2022-10-07T12:43:56.477Z,95366.84
2022-10-07T12:46:30.412Z,95365.25
2022-10-07T12:49:05.108Z,95357.38
2022-10-07T12:51:39.518Z,95359.75
2022-10-07T12:54:17.818Z,95352.56
2022-10-07T12:56:46.362Z,95355.63
2022-10-07T12:59:50.335Z,95349.84
2022-10-07T13:02:57.267Z,95351.66
2022-10-07T13:06:12.710Z,95340.78
2022-10-07T13:09:06.043Z,95344.91
2022-10-07T13:12:16.311Z,95342.94
2022-10-07T13:14:54.332Z,95338.44
2022-10-07T13:17:47.514Z,95336.53
2022-10-07T13:20:32.330Z,95329.84
2022-10-07T13:23:06.426Z,95329.28
2022-10-07T13:25:34.728Z,95328.09
2022-10-07T13:28:02.734Z,95332.88
2022-10-07T13:30:40.365Z,95333.28
2022-10-07T13:33:24.573Z,95329.44
2022-10-07T13:35:53.895Z,95333.75
2022-10-07T13:38:23.635Z,95325.59
2022-10-07T13:40:58.037Z,95335.38
2022-10-07T13:43:29.429Z,95323.63
2022-10-07T13:45:58.758Z,95328.19
2022-10-07T13:48:35.179Z,95319.63
2022-10-07T13:51:04.815Z,95328.13
2022-10-07T13:53:36.497Z,95320.34
2022-10-07T13:56:09.809Z,95325.31
2022-10-07T13:58:38.678Z,95319.03
2022-10-07T14:01:07.603Z,95325.34
2022-10-07T14:03:56.947Z,95315.94
2022-10-07T14:06:53.669Z,95318.19
2022-10-07T14:09:26.445Z,95317.19
2022-10-07T14:11:58.047Z,95313.25
2022-10-07T14:14:28.416Z,95307.28
2022-10-07T14:17:00.340Z,95314.38
2022-10-07T14:19:33.402Z,95309.31
2022-10-07T14:22:04.475Z,95312.25
2022-10-07T14:24:33.082Z,95302.03
2022-10-07T14:27:01.569Z,95315.69
2022-10-07T14:29:38.682Z,95310.56
2022-10-07T14:32:35.142Z,95306.50
2022-10-07T14:35:19.835Z,95310.09
2022-10-07T14:37:48.187Z,95312.06
2022-10-07T14:40:23.322Z,95309.13
2022-10-07T14:42:53.881Z,95308.22
2022-10-07T14:45:23.773Z,95303.53
2022-10-07T14:47:51.752Z,95305.72
2022-10-07T14:50:21.720Z,95304.56
2022-10-07T14:52:52.242Z,95306.19
2022-10-07T14:55:24.705Z,95305.56
2022-10-07T14:57:53.072Z,95301.78
2022-10-07T15:00:22.958Z,95311.03
2022-10-07T15:02:51.457Z,95302.97
2022-10-07T15:05:22.695Z,95304.34
2022-10-07T15:07:51.248Z,95297.97
2022-10-07T15:10:21.204Z,95298.22
2022-10-07T15:12:49.385Z,95296.56
2022-10-07T15:15:18.204Z,95301.94
2022-10-07T15:17:46.475Z,95308.09
2022-10-07T15:20:16.025Z,95289.59
2022-10-07T15:22:46.174Z,95292.25
2022-10-07T15:25:15.755Z,95305.19
2022-10-07T15:27:43.751Z,95299.25
2022-10-07T15:30:13.230Z,95307.53
2022-10-07T15:32:41.270Z,95299.84
2022-10-07T15:35:09.833Z,95304.81
2022-10-07T15:37:37.825Z,95301.53
2022-10-07T15:40:08.733Z,95306.97
2022-10-07T15:42:36.679Z,95303.34
2022-10-07T15:45:04.844Z,95308.03
2022-10-07T15:47:34.343Z,95307.31
2022-10-07T15:50:02.322Z,95305.94
2022-10-07T15:52:30.313Z,95296.84
2022-10-07T15:54:58.208Z,95309.44
2022-10-07T15:57:27.512Z,95306.38
2022-10-07T15:59:55.732Z,95321.78
2022-10-07T16:02:24.902Z,95318.31
2022-10-07T16:04:52.915Z,95320.38
2022-10-07T16:07:21.191Z,95312.88
2022-10-07T16:09:49.062Z,95323.75
2022-10-07T16:12:17.289Z,95328.41
2022-10-07T16:14:47.450Z,95330.41
2022-10-07T16:17:15.638Z,95331.22
2022-10-07T16:19:44.493Z,95330.00
2022-10-07T16:22:12.438Z,95335.06
2022-10-07T16:24:42.225Z,95335.88
2022-10-07T16:27:10.085Z,95334.03
2022-10-07T16:29:55.205Z,95338.47
2022-10-07T16:32:24.511Z,95344.34
2022-10-07T16:34:52.694Z,95347.34
2022-10-07T16:37:20.644Z,95347.50
2022-10-07T16:39:48.608Z,95341.34
2022-10-07T16:42:17.901Z,95352.06
2022-10-07T16:44:50.527Z,95352.16
2022-10-07T16:47:18.756Z,95353.47
2022-10-07T16:49:48.026Z,95357.97
2022-10-07T16:52:16.049Z,95364.81
2022-10-07T16:54:43.971Z,95361.25
2022-10-07T16:57:11.948Z,95361.34
2022-10-07T16:59:39.941Z,95361.53
2022-10-07T17:02:07.893Z,95349.34
2022-10-07T17:04:35.861Z,95357.59
2022-10-07T17:07:05.990Z,95359.81
2022-10-07T17:09:34.101Z,95365.66
2022-10-07T17:12:02.133Z,95368.72
2022-10-07T17:14:31.873Z,95368.31
2022-10-07T17:17:00.559Z,95366.31
2022-10-07T17:19:29.766Z,95365.47
2022-10-07T17:21:59.258Z,95368.94
2022-10-07T17:24:28.930Z,95363.69
2022-10-07T17:26:57.085Z,95375.66
2022-10-07T17:29:26.324Z,95372.88
2022-10-07T17:31:54.965Z,95363.56
2022-10-07T17:34:23.654Z,95371.00
2022-10-07T17:36:51.772Z,95362.19
2022-10-07T17:39:20.196Z,95368.03
2022-10-07T17:41:49.731Z,95369.81
2022-10-07T17:44:17.908Z,95366.50
2022-10-07T17:46:46.926Z,95375.25
2022-10-07T17:49:14.976Z,95372.19
2022-10-07T17:51:43.994Z,95365.91
2022-10-07T17:54:14.006Z,95375.56
2022-10-07T17:56:42.450Z,95380.75
2022-10-07T17:59:12.367Z,95374.97
2022-10-07T18:01:41.260Z,95375.94
2022-10-07T18:04:13.033Z,95378.75
2022-10-07T18:06:42.839Z,95376.69
2022-10-07T18:09:15.144Z,95380.31
2022-10-07T18:12:00.367Z,95371.72
2022-10-07T18:14:52.604Z,95379.34
2022-10-07T18:17:21.586Z,95381.69
2022-10-07T18:19:49.542Z,95376.56
2022-10-07T18:22:17.478Z,95386.69
2022-10-07T18:24:46.162Z,95380.81
2022-10-07T18:27:14.137Z,95384.91
2022-10-07T18:29:43.451Z,95389.69
2022-10-07T18:32:11.409Z,95383.19
2022-10-07T18:34:39.393Z,95381.03
2022-10-07T18:37:08.412Z,95380.69
2022-10-07T18:39:36.335Z,95378.72
2022-10-07T18:42:04.516Z,95383.38
2022-10-07T18:44:32.779Z,95378.16
2022-10-07T18:47:02.032Z,95372.34
2022-10-07T18:49:30.072Z,95368.16
2022-10-07T18:51:58.061Z,95367.69
2022-10-07T18:54:25.926Z,95367.91
2022-10-07T18:56:54.153Z,95365.88
2022-10-07T18:59:22.144Z,95363.94
2022-10-07T19:01:51.110Z,95373.53
2022-10-07T19:04:20.852Z,95365.88
2022-10-07T19:06:49.573Z,95374.00
2022-10-07T19:09:19.918Z,95373.94
2022-10-07T19:11:48.222Z,95371.97
2022-10-07T19:14:15.798Z,95378.91
2022-10-07T19:16:45.449Z,95366.16
2022-10-07T19:19:17.013Z,95376.91
2022-10-07T19:21:48.388Z,95377.09
2022-10-07T19:24:16.840Z,95371.72
2022-10-07T19:26:46.433Z,95373.22
2022-10-07T19:29:16.588Z,95374.66
2022-10-07T19:31:46.095Z,95371.38
2022-10-07T19:34:17.211Z,95373.13
2022-10-07T19:36:47.923Z,95370.47
2022-10-07T19:39:17.359Z,95373.25
2022-10-07T19:41:45.575Z,95371.47
2022-10-07T19:44:14.161Z,95377.50
2022-10-07T19:46:42.264Z,95376.63
2022-10-07T19:49:10.864Z,95373.03
2022-10-07T19:51:40.383Z,95381.06
2022-10-07T19:54:10.871Z,95377.47
2022-10-07T19:56:40.151Z,95378.56
2022-10-07T19:59:10.272Z,95373.38
2022-10-07T20:01:41.395Z,95370.28
2022-10-07T20:04:11.155Z,95372.59
2022-10-07T20:06:39.406Z,95376.81
2022-10-07T20:09:10.790Z,95375.28
2022-10-07T20:11:38.758Z,95369.63
2022-10-07T20:14:07.196Z,95376.41
2022-10-07T20:16:37.269Z,95377.84
2022-10-07T20:19:06.796Z,95376.34
2022-10-07T20:21:36.694Z,95379.09
2022-10-07T20:24:06.570Z,95379.91
2022-10-07T20:26:37.812Z,95375.03
2022-10-07T20:29:07.203Z,95379.25
2022-10-07T20:31:38.605Z,95375.34
2022-10-07T20:34:08.265Z,95371.88
2022-10-07T20:36:38.599Z,95378.25
2022-10-07T20:39:25.842Z,95353.72
2022-10-07T20:42:12.557Z,95369.38
2022-10-07T20:44:41.168Z,95368.25
2022-10-07T20:47:10.393Z,95367.13
2022-10-07T20:49:41.582Z,95362.41
2022-10-07T20:52:11.709Z,95366.00
2022-10-07T20:54:39.718Z,95367.31
2022-10-07T20:57:08.997Z,95361.91
2022-10-07T20:59:36.900Z,95369.25
2022-10-07T21:02:09.493Z,95364.66
2022-10-07T21:04:37.793Z,95362.09
2022-10-07T21:07:05.719Z,95358.03
2022-10-07T21:09:36.568Z,95353.94
2022-10-07T21:12:07.260Z,95352.84
2022-10-07T21:14:36.663Z,95359.22
2022-10-07T21:17:05.527Z,95350.75
2022-10-07T21:19:35.634Z,95360.78
2022-10-07T21:22:04.012Z,95362.63
2022-10-07T21:24:34.260Z,95362.59
2022-10-07T21:27:02.893Z,95357.84
2022-10-07T21:29:32.249Z,95355.59
2022-10-07T21:32:02.051Z,95354.09
2022-10-07T21:34:29.965Z,95354.09
2022-10-07T21:36:58.059Z,95348.13
2022-10-07T21:39:26.529Z,95356.34
2022-10-07T21:41:55.050Z,95352.28
2022-10-07T21:44:22.943Z,95350.47
2022-10-07T21:46:50.909Z,95351.31
2022-10-07T21:49:20.969Z,95348.22
2022-10-07T21:51:48.838Z,95351.78
2022-10-07T21:54:16.708Z,95345.78
2022-10-07T21:56:46.293Z,95344.34
2022-10-07T21:59:14.433Z,95343.16
2022-10-07T22:01:43.217Z,95337.19
2022-10-07T22:04:17.346Z,95334.88
2022-10-07T22:07:04.487Z,95318.75
2022-10-07T22:09:33.360Z,95324.16
2022-10-07T22:12:01.254Z,95325.13
2022-10-07T22:14:29.180Z,95326.91
2022-10-07T22:16:57.077Z,95320.72
2022-10-07T22:19:25.282Z,95316.47
2022-10-07T22:21:55.277Z,95315.34
2022-10-07T22:24:24.033Z,95321.06
2022-10-07T22:26:52.234Z,95321.69
2022-10-07T22:29:21.910Z,95323.50
2022-10-07T22:31:49.909Z,95320.88
2022-10-07T22:34:35.302Z,95304.09
2022-10-07T22:37:06.259Z,95307.47
2022-10-07T22:39:34.084Z,95302.28
2022-10-07T22:42:02.341Z,95298.66
2022-10-07T22:44:31.764Z,95285.97
2022-10-07T22:47:00.401Z,95289.56
2022-10-07T22:49:30.177Z,95277.47
2022-10-07T22:51:59.774Z,95269.97
2022-10-07T22:54:30.050Z,95271.44
2022-10-07T22:56:57.964Z,95267.53
2022-10-07T22:59:25.917Z,95259.06
2022-10-07T23:01:53.814Z,95262.78
2022-10-07T23:04:21.808Z,95259.53
2022-10-07T23:06:49.788Z,95253.06
2022-10-07T23:09:17.697Z,95258.38
2022-10-07T23:11:46.925Z,95250.06
2022-10-07T23:14:14.898Z,95243.72
2022-10-07T23:16:44.324Z,95243.84
2022-10-07T23:19:12.346Z,95240.56
2022-10-07T23:21:40.263Z,95246.94
2022-10-07T23:24:09.963Z,95242.25
2022-10-07T23:26:38.373Z,95235.09
2022-10-07T23:29:08.653Z,95236.50
2022-10-07T23:31:36.893Z,95229.19
2022-10-07T23:34:06.694Z,95230.03
2022-10-07T23:36:35.271Z,95232.78
2022-10-07T23:39:03.324Z,95232.88
2022-10-07T23:41:32.121Z,95221.91
2022-10-07T23:44:03.003Z,95210.69
2022-10-07T23:46:35.048Z,95199.94
2022-10-07T23:49:03.998Z,95200.16
2022-10-07T23:51:32.524Z,95198.19
2022-10-07T23:54:01.937Z,95190.94
2022-10-07T23:56:30.153Z,95202.81
2022-10-07T23:58:58.228Z,95198.44
